createdAt,value
2019-03-21T00:02:19.913Z,68.06
2019-03-21T00:04:51.989Z,69.00
2019-03-21T00:07:23.290Z,68.41
2019-03-21T00:10:31.111Z,68.78
2019-03-21T00:13:02.438Z,69.07
2019-03-21T00:15:56.880Z,69.76
2019-03-21T00:18:28.162Z,69.62
2019-03-21T00:20:59.511Z,70.16
2019-03-21T00:23:32.486Z,69.99
2019-03-21T00:26:04.039Z,70.01
2019-03-21T00:28:35.438Z,69.38
2019-03-21T00:31:06.854Z,69.79
2019-03-21T00:33:38.225Z,69.19
2019-03-21T00:36:10.626Z,69.67
2019-03-21T00:38:42.164Z,69.74
2019-03-21T00:41:13.503Z,69.16
2019-03-21T00:43:44.803Z,69.52
2019-03-21T00:46:16.167Z,69.25
2019-03-21T00:48:47.477Z,69.66
2019-03-21T00:51:18.830Z,70.19
2019-03-21T00:53:50.066Z,70.21
2019-03-21T00:56:21.342Z,70.01
2019-03-21T00:58:52.742Z,70.46
2019-03-21T01:01:24.155Z,70.84
2019-03-21T01:03:55.388Z,70.63
2019-03-21T01:06:26.744Z,70.63
2019-03-21T01:08:57.980Z,69.99
2019-03-21T01:11:29.346Z,69.23
2019-03-21T01:14:00.574Z,69.77
2019-03-21T01:16:31.840Z,70.13
2019-03-21T01:19:03.237Z,69.89
2019-03-21T01:21:34.585Z,70.54
2019-03-21T01:24:06.034Z,70.71
2019-03-21T01:26:37.291Z,71.26
2019-03-21T01:29:08.590Z,70.73
2019-03-21T01:31:39.872Z,71.09
2019-03-21T01:34:11.097Z,71.02
2019-03-21T01:36:42.444Z,70.67
2019-03-21T01:39:13.658Z,70.52
2019-03-21T01:41:44.918Z,70.67
2019-03-21T01:44:16.137Z,70.45
2019-03-21T01:46:47.522Z,70.22
2019-03-21T01:49:18.808Z,70.81
2019-03-21T01:51:51.237Z,71.23
2019-03-21T01:54:22.532Z,71.63
2019-03-21T01:56:53.872Z,71.72
2019-03-21T01:59:25.089Z,70.91
2019-03-21T02:01:56.377Z,70.88
2019-03-21T02:04:27.610Z,71.00
2019-03-21T02:06:58.872Z,71.36
2019-03-21T02:09:30.282Z,71.92
2019-03-21T02:12:01.652Z,71.89
2019-03-21T02:14:32.961Z,72.41
2019-03-21T02:17:06.276Z,72.15
2019-03-21T02:19:37.528Z,72.20
2019-03-21T02:22:09.012Z,71.87
2019-03-21T02:24:40.242Z,72.17
2019-03-21T02:27:11.588Z,72.55
2019-03-21T02:29:42.806Z,72.91
2019-03-21T02:32:14.146Z,72.77
2019-03-21T02:34:45.431Z,71.97
2019-03-21T02:37:17.951Z,71.97
2019-03-21T02:39:59.528Z,71.93
2019-03-21T02:42:22.189Z,72.20
2019-03-21T02:45:07.723Z,72.17
2019-03-21T02:47:26.525Z,72.69
2019-03-21T02:49:57.801Z,72.53
2019-03-21T02:52:30.177Z,72.16
2019-03-21T02:55:01.522Z,72.26
2019-03-21T02:57:32.817Z,72.79
2019-03-21T03:00:07.498Z,72.44
2019-03-21T03:02:39.121Z,72.93
2019-03-21T03:05:15.146Z,73.50
2019-03-21T03:07:46.487Z,73.46
2019-03-21T03:10:50.866Z,73.04
2019-03-21T03:13:22.213Z,73.18
2019-03-21T03:15:53.649Z,73.42
2019-03-21T03:18:26.153Z,73.45
2019-03-21T03:20:57.381Z,73.63
2019-03-21T03:23:28.784Z,73.62
2019-03-21T03:26:00.060Z,73.71
2019-03-21T03:28:42.220Z,73.14
2019-03-21T03:31:13.544Z,73.28
2019-03-21T03:33:45.246Z,73.07
2019-03-21T03:36:17.443Z,72.75
2019-03-21T03:38:48.818Z,72.52
2019-03-21T03:41:22.035Z,71.84
2019-03-21T03:43:53.335Z,71.99
2019-03-21T03:46:24.605Z,71.71
2019-03-21T03:48:55.910Z,71.89
2019-03-21T03:51:27.280Z,72.04
2019-03-21T03:53:58.622Z,71.74
2019-03-21T03:56:30.034Z,71.76
2019-03-21T03:59:05.982Z,71.92
2019-03-21T04:01:37.398Z,71.85
2019-03-21T04:04:08.710Z,71.81
2019-03-21T04:06:40.421Z,71.76
2019-03-21T04:09:11.738Z,71.60
2019-03-21T04:11:43.136Z,71.61
2019-03-21T04:14:15.535Z,71.19
2019-03-21T04:16:47.053Z,71.15
2019-03-21T04:19:18.343Z,71.11
2019-03-21T04:21:49.834Z,70.93
2019-03-21T04:24:21.131Z,71.00
2019-03-21T04:26:52.576Z,70.90
2019-03-21T04:29:23.811Z,70.80
2019-03-21T04:31:55.044Z,70.57
2019-03-21T04:34:27.425Z,70.67
2019-03-21T04:37:01.722Z,70.76
2019-03-21T04:39:33.857Z,71.03
2019-03-21T04:42:05.249Z,70.86
2019-03-21T04:44:36.683Z,70.70
2019-03-21T04:47:07.913Z,71.05
2019-03-21T04:49:39.402Z,70.91
2019-03-21T04:52:10.666Z,71.34
2019-03-21T04:54:42.130Z,71.79
2019-03-21T04:57:13.580Z,71.93
2019-03-21T04:59:44.868Z,71.86
2019-03-21T05:02:16.229Z,71.93
2019-03-21T05:04:47.668Z,71.96
2019-03-21T05:07:27.476Z,72.09
2019-03-21T05:09:58.922Z,72.27
2019-03-21T05:12:30.199Z,72.47
2019-03-21T05:15:01.646Z,72.73
2019-03-21T05:17:34.016Z,72.81
2019-03-21T05:20:14.289Z,72.56
2019-03-21T05:22:45.144Z,72.19
2019-03-21T05:25:18.534Z,71.92
2019-03-21T05:27:49.831Z,71.54
2019-03-21T05:30:37.702Z,71.11
2019-03-21T05:33:08.934Z,70.92
2019-03-21T05:35:40.355Z,70.72
2019-03-21T05:38:12.688Z,70.68
2019-03-21T05:40:44.077Z,70.62
2019-03-21T05:43:25.850Z,70.54
2019-03-21T05:45:58.400Z,70.65
2019-03-21T05:48:29.649Z,70.42
2019-03-21T05:51:00.939Z,69.91
2019-03-21T05:53:33.939Z,70.16
2019-03-21T05:56:05.255Z,70.37
2019-03-21T05:58:36.531Z,71.09
2019-03-21T06:01:15.094Z,71.21
2019-03-21T06:03:52.510Z,71.42
2019-03-21T06:07:03.572Z,71.73
2019-03-21T06:09:35.002Z,72.02
2019-03-21T06:12:08.150Z,72.36
2019-03-21T06:14:55.372Z,72.43
2019-03-21T06:17:26.925Z,72.62
2019-03-21T06:20:29.034Z,72.59
2019-03-21T06:23:42.997Z,72.73
2019-03-21T06:26:42.976Z,72.74
2019-03-21T06:29:14.207Z,72.45
2019-03-21T06:31:45.498Z,72.28
2019-03-21T06:34:16.901Z,72.18
2019-03-21T06:36:48.276Z,72.46
2019-03-21T06:39:19.584Z,72.88
2019-03-21T06:41:49.846Z,72.87
2019-03-21T06:44:21.157Z,72.96
2019-03-21T06:46:52.517Z,72.39
2019-03-21T06:49:23.899Z,72.05
2019-03-21T06:51:55.268Z,71.54
2019-03-21T06:54:26.535Z,71.32
2019-03-21T06:56:57.911Z,70.89
2019-03-21T06:59:29.167Z,70.75
2019-03-21T07:02:00.505Z,70.74
2019-03-21T07:04:31.820Z,71.34
2019-03-21T07:07:08.431Z,71.53
2019-03-21T07:09:36.623Z,71.61
2019-03-21T07:12:08.072Z,71.57
2019-03-21T07:14:39.433Z,71.27
2019-03-21T07:17:10.871Z,71.21
2019-03-21T07:19:42.194Z,71.49
2019-03-21T07:22:13.469Z,71.55
2019-03-21T07:24:44.777Z,70.96
2019-03-21T07:27:17.621Z,70.64
2019-03-21T07:29:48.855Z,69.90
2019-03-21T07:32:20.476Z,69.02
2019-03-21T07:34:54.591Z,69.10
2019-03-21T07:37:26.278Z,69.57
2019-03-21T07:43:07.922Z,69.11
2019-03-21T07:45:39.308Z,68.19
2019-03-21T07:48:10.611Z,67.88
2019-03-21T07:50:42.039Z,67.54
2019-03-21T07:53:13.293Z,67.25
2019-03-21T07:55:44.667Z,66.72
2019-03-21T07:58:16.015Z,67.02
2019-03-21T08:00:47.319Z,66.42
2019-03-21T08:03:18.745Z,65.66
2019-03-21T08:05:50.133Z,65.16
2019-03-21T08:08:21.422Z,64.38
2019-03-21T08:10:52.692Z,63.61
2019-03-21T08:13:24.096Z,62.53
2019-03-21T08:15:55.504Z,62.89
2019-03-21T08:18:26.798Z,62.16
2019-03-21T08:21:00.167Z,61.79
2019-03-21T08:23:34.155Z,61.45
2019-03-21T08:26:05.442Z,60.47
2019-03-21T08:28:36.727Z,60.14
2019-03-21T08:31:12.880Z,58.90
2019-03-21T08:33:57.477Z,59.94
2019-03-21T08:36:28.715Z,60.38
2019-03-21T08:39:01.095Z,60.59
2019-03-21T08:41:33.704Z,58.50
2019-03-21T08:44:05.767Z,59.39
2019-03-21T08:46:37.202Z,59.16
2019-03-21T08:49:08.447Z,59.16
2019-03-21T08:51:39.814Z,58.93
2019-03-21T08:54:11.124Z,58.63
2019-03-21T08:57:01.163Z,57.45
2019-03-21T08:59:32.623Z,57.11
2019-03-21T09:02:04.970Z,57.24
2019-03-21T09:04:36.210Z,56.61
2019-03-21T09:07:07.523Z,55.58
2019-03-21T09:09:38.887Z,55.38
2019-03-21T09:12:15.834Z,55.12
2019-03-21T09:14:47.198Z,54.44
2019-03-21T09:17:18.519Z,54.20
2019-03-21T09:19:49.897Z,53.91
2019-03-21T09:22:21.350Z,54.00
2019-03-21T09:24:52.726Z,53.24
2019-03-21T09:27:24.104Z,52.49
2019-03-21T09:29:55.784Z,52.41
2019-03-21T09:32:27.487Z,52.43
2019-03-21T09:34:58.797Z,52.31
2019-03-21T09:37:30.179Z,51.52
2019-03-21T09:40:01.495Z,50.57
2019-03-21T09:42:32.747Z,49.00
2019-03-21T09:45:10.548Z,48.40
2019-03-21T09:47:41.856Z,47.66
2019-03-21T09:50:19.702Z,46.94
2019-03-21T09:52:51.048Z,47.22
2019-03-21T09:55:24.381Z,47.50
2019-03-21T09:57:55.689Z,46.43
2019-03-21T10:00:36.179Z,47.54
2019-03-21T10:03:07.779Z,45.93
2019-03-21T10:05:39.100Z,43.95
2019-03-21T10:08:10.408Z,42.08
2019-03-21T10:10:40.891Z,41.50
2019-03-21T10:13:12.212Z,41.51
2019-03-21T10:15:43.685Z,41.38
2019-03-21T10:18:15.051Z,41.08
2019-03-21T10:20:46.542Z,39.96
2019-03-21T10:23:18.576Z,41.37
2019-03-21T10:25:49.937Z,40.72
2019-03-21T10:28:21.420Z,38.79
2019-03-21T10:30:52.796Z,40.40
2019-03-21T10:33:24.120Z,39.30
2019-03-21T10:35:55.559Z,39.40
2019-03-21T10:38:26.895Z,37.89
2019-03-21T10:40:58.354Z,37.68
2019-03-21T10:43:29.616Z,37.07
2019-03-21T10:46:02.131Z,39.17
2019-03-21T10:48:33.538Z,38.54
2019-03-21T10:51:04.925Z,37.08
2019-03-21T10:53:36.308Z,39.57
2019-03-21T10:56:07.710Z,39.18
2019-03-21T10:58:39.155Z,37.04
2019-03-21T11:01:10.689Z,36.27
2019-03-21T11:03:42.076Z,35.96
2019-03-21T11:06:13.360Z,34.29
2019-03-21T11:08:44.701Z,34.83
2019-03-21T11:11:16.104Z,35.68
2019-03-21T11:13:47.377Z,35.50
2019-03-21T11:16:18.843Z,34.24
2019-03-21T11:18:50.268Z,36.41
2019-03-21T11:21:21.710Z,35.91
2019-03-21T11:23:53.060Z,35.87
2019-03-21T11:26:24.460Z,32.66
2019-03-21T11:28:55.744Z,32.10
2019-03-21T11:31:30.385Z,32.21
2019-03-21T11:34:01.741Z,31.65
2019-03-21T11:36:38.134Z,31.66
2019-03-21T11:39:09.628Z,33.68
2019-03-21T11:41:42.087Z,31.83
2019-03-21T11:44:13.444Z,29.67
2019-03-21T11:46:44.759Z,29.72
2019-03-21T11:49:16.094Z,30.19
2019-03-21T11:51:47.510Z,30.34
2019-03-21T11:54:18.777Z,30.04
2019-03-21T11:56:54.677Z,32.31
2019-03-21T11:59:36.967Z,31.67
2019-03-21T12:01:58.991Z,30.80
2019-03-21T12:04:30.259Z,28.09
2019-03-21T12:07:01.619Z,29.34
2019-03-21T12:09:32.958Z,30.90
2019-03-21T12:12:04.330Z,30.45
2019-03-21T12:14:35.637Z,32.49
2019-03-21T12:17:07.014Z,27.75
2019-03-21T12:19:38.329Z,26.45
2019-03-21T12:22:09.752Z,28.25
2019-03-21T12:24:41.123Z,27.52
2019-03-21T12:27:12.410Z,27.54
2019-03-21T12:29:43.724Z,29.21
2019-03-21T12:32:15.073Z,25.96
2019-03-21T12:34:46.393Z,27.03
2019-03-21T12:37:17.634Z,27.13
2019-03-21T12:39:48.951Z,29.87
2019-03-21T12:42:23.644Z,29.72
2019-03-21T12:44:55.126Z,28.49
2019-03-21T12:47:31.158Z,26.61
2019-03-21T12:49:59.444Z,27.42
2019-03-21T12:52:41.002Z,26.54
2019-03-21T12:55:05.747Z,28.93
2019-03-21T12:57:37.184Z,27.12
2019-03-21T13:00:16.083Z,28.38
2019-03-21T13:02:47.394Z,29.37
2019-03-21T13:05:32.534Z,26.85
2019-03-21T13:08:05.881Z,26.98
2019-03-21T13:10:37.308Z,26.13
2019-03-21T13:13:09.065Z,26.61
2019-03-21T13:15:40.746Z,26.19
2019-03-21T13:18:42.894Z,28.38
2019-03-21T13:21:16.567Z,28.28
2019-03-21T13:23:47.979Z,26.65
2019-03-21T13:26:19.235Z,26.70
2019-03-21T13:28:50.517Z,28.61
2019-03-21T13:31:21.804Z,28.74
2019-03-21T13:33:53.195Z,30.54
2019-03-21T13:36:24.430Z,27.00
2019-03-21T13:38:57.948Z,28.06
2019-03-21T13:41:29.299Z,27.98
2019-03-21T13:44:00.663Z,26.08
2019-03-21T13:46:32.084Z,27.25
2019-03-21T13:49:06.037Z,26.74
2019-03-21T13:51:37.054Z,26.53
2019-03-21T13:54:08.951Z,26.91
2019-03-21T13:56:42.402Z,25.72
2019-03-21T13:59:14.725Z,26.76
2019-03-21T14:01:46.157Z,26.04
2019-03-21T14:04:17.675Z,26.89
2019-03-21T14:06:49.100Z,26.51
2019-03-21T14:09:22.228Z,24.92
2019-03-21T14:11:53.570Z,25.04
2019-03-21T14:14:26.420Z,25.56
2019-03-21T14:16:57.797Z,27.28
2019-03-21T14:19:29.102Z,27.28
2019-03-21T14:22:00.460Z,26.45
2019-03-21T14:24:33.547Z,23.99
2019-03-21T14:27:04.947Z,24.98
2019-03-21T14:29:36.365Z,24.55
2019-03-21T14:32:07.680Z,25.21
2019-03-21T14:34:42.268Z,26.48
2019-03-21T14:37:14.386Z,24.58
2019-03-21T14:39:45.702Z,24.03
2019-03-21T14:42:16.999Z,24.43
2019-03-21T14:44:50.122Z,24.49
2019-03-21T14:47:21.639Z,26.37
2019-03-21T14:49:53.562Z,24.53
2019-03-21T14:52:27.020Z,24.44
2019-03-21T14:54:58.915Z,25.03
2019-03-21T14:57:30.422Z,26.19
2019-03-21T15:00:01.805Z,26.41
2019-03-21T15:02:33.273Z,25.16
2019-03-21T15:05:08.760Z,24.60
2019-03-21T15:07:40.089Z,25.74
2019-03-21T15:10:22.567Z,24.01
2019-03-21T15:12:55.307Z,24.89
2019-03-21T15:15:26.703Z,24.96
2019-03-21T15:17:58.834Z,24.48
2019-03-21T15:20:35.157Z,26.08
2019-03-21T15:23:06.502Z,26.14
2019-03-21T15:25:38.013Z,24.60
2019-03-21T15:28:11.050Z,24.98
2019-03-21T15:30:45.852Z,24.06
2019-03-21T15:33:20.016Z,24.40
2019-03-21T15:35:51.333Z,22.40
2019-03-21T15:38:22.637Z,22.01
2019-03-21T15:40:54.572Z,22.43
2019-03-21T15:43:25.819Z,23.04
2019-03-21T15:45:58.480Z,24.14
2019-03-21T15:48:32.802Z,25.65
2019-03-21T15:51:05.186Z,22.33
2019-03-21T15:53:36.612Z,22.49
2019-03-21T15:56:16.659Z,21.87
2019-03-21T15:58:42.782Z,22.33
2019-03-21T16:01:14.141Z,23.45
2019-03-21T16:03:45.712Z,22.76
2019-03-21T16:06:17.161Z,23.41
2019-03-21T16:08:48.470Z,23.44
2019-03-21T16:11:19.749Z,22.01
2019-03-21T16:13:50.993Z,22.46
2019-03-21T16:16:22.346Z,23.00
2019-03-21T16:18:53.677Z,23.39
2019-03-21T16:21:24.981Z,22.64
2019-03-21T16:24:05.158Z,24.06
2019-03-21T16:26:30.421Z,23.79
2019-03-21T16:29:02.684Z,24.51
2019-03-21T16:31:33.973Z,24.32
2019-03-21T16:34:05.355Z,23.44
2019-03-21T16:36:36.669Z,23.55
2019-03-21T16:39:08.614Z,22.70
2019-03-21T16:41:42.843Z,23.32
2019-03-21T16:44:14.091Z,23.24
2019-03-21T16:46:45.451Z,23.55
2019-03-21T16:49:18.052Z,23.01
2019-03-21T16:51:54.147Z,23.93
2019-03-21T16:54:30.166Z,25.02
2019-03-21T16:57:00.652Z,25.61
2019-03-21T16:59:32.394Z,25.54
2019-03-21T17:02:03.663Z,25.99
2019-03-21T17:04:34.913Z,26.87
2019-03-21T17:07:06.395Z,26.77
2019-03-21T17:09:39.161Z,27.19
2019-03-21T17:12:10.480Z,26.62
2019-03-21T17:14:42.019Z,27.07
2019-03-21T17:17:13.343Z,26.81
2019-03-21T17:19:44.624Z,28.00
2019-03-21T17:22:16.041Z,28.36
2019-03-21T17:24:47.385Z,28.60
2019-03-21T17:27:18.823Z,28.93
2019-03-21T17:29:50.344Z,29.99
2019-03-21T17:32:23.390Z,30.06
2019-03-21T17:35:10.317Z,29.99
2019-03-21T17:37:43.742Z,30.20
2019-03-21T17:40:16.509Z,30.69
2019-03-21T17:42:47.760Z,31.39
2019-03-21T17:45:22.440Z,31.32
2019-03-21T17:47:53.734Z,31.67
2019-03-21T17:50:25.504Z,31.69
2019-03-21T17:52:56.717Z,31.74
2019-03-21T17:55:29.327Z,32.53
2019-03-21T17:58:00.667Z,33.83
2019-03-21T18:00:38.179Z,33.38
2019-03-21T18:03:09.690Z,33.93
2019-03-21T18:05:42.983Z,33.79
2019-03-21T18:08:14.442Z,34.01
2019-03-21T18:10:47.688Z,34.38
2019-03-21T18:13:19.203Z,35.25
2019-03-21T18:15:50.673Z,35.23
2019-03-21T18:18:23.458Z,35.62
2019-03-21T18:20:57.195Z,37.88
2019-03-21T18:23:28.796Z,38.61
2019-03-21T18:26:01.713Z,38.51
2019-03-21T18:28:45.694Z,39.44
2019-03-21T18:31:17.003Z,39.11
2019-03-21T18:33:48.503Z,40.14
2019-03-21T18:36:19.839Z,39.24
2019-03-21T18:39:02.767Z,40.36
2019-03-21T18:41:34.195Z,40.01
2019-03-21T18:44:05.714Z,40.53
2019-03-21T18:46:36.973Z,40.92
2019-03-21T18:49:08.385Z,41.44
2019-03-21T18:51:39.838Z,42.10
2019-03-21T18:54:12.161Z,40.91
2019-03-21T18:56:50.801Z,39.96
2019-03-21T18:59:22.134Z,41.21
2019-03-21T19:01:58.367Z,42.89
2019-03-21T19:04:26.719Z,42.25
2019-03-21T19:07:00.725Z,42.24
2019-03-21T19:09:35.028Z,41.86
2019-03-21T19:12:06.552Z,43.42
2019-03-21T19:14:42.549Z,42.26
2019-03-21T19:17:14.071Z,42.35
2019-03-21T19:19:59.218Z,43.21
2019-03-21T19:22:30.699Z,43.40
2019-03-21T19:25:02.154Z,44.07
2019-03-21T19:27:36.093Z,44.56
2019-03-21T19:30:12.311Z,45.12
2019-03-21T19:32:43.615Z,45.23
2019-03-21T19:35:20.852Z,45.23
2019-03-21T19:37:52.363Z,45.80
2019-03-21T19:40:23.872Z,44.76
2019-03-21T19:42:56.772Z,45.24
2019-03-21T19:45:28.262Z,45.20
2019-03-21T19:47:59.613Z,45.93
2019-03-21T19:50:31.071Z,45.89
2019-03-21T19:53:02.395Z,45.62
2019-03-21T19:55:37.638Z,46.10
2019-03-21T19:58:12.459Z,47.18
2019-03-21T20:00:46.560Z,46.46
2019-03-21T20:03:17.942Z,46.84
2019-03-21T20:06:00.239Z,45.45
2019-03-21T20:08:25.927Z,46.27
2019-03-21T20:10:59.043Z,45.65
2019-03-21T20:13:30.486Z,45.75
2019-03-21T20:16:02.550Z,45.99
2019-03-21T20:18:35.106Z,45.94
2019-03-21T20:21:06.603Z,46.21
2019-03-21T20:23:38.232Z,46.77
2019-03-21T20:26:10.184Z,46.38
2019-03-21T20:28:41.653Z,47.36
2019-03-21T20:31:12.950Z,46.76
2019-03-21T20:33:45.954Z,46.33
2019-03-21T20:36:17.254Z,47.65
2019-03-21T20:38:51.367Z,46.79
2019-03-21T20:41:21.609Z,47.65
2019-03-21T20:43:52.840Z,47.31
2019-03-21T20:46:24.113Z,47.41
2019-03-21T20:48:53.874Z,47.19
2019-03-21T20:51:26.941Z,47.19
2019-03-21T20:53:58.371Z,47.84
2019-03-21T20:56:29.841Z,46.72
2019-03-21T20:59:01.258Z,46.81
2019-03-21T21:01:37.355Z,47.35
2019-03-21T21:04:11.376Z,47.08
2019-03-21T21:06:42.678Z,47.87
2019-03-21T21:09:14.107Z,47.90
2019-03-21T21:11:45.655Z,47.29
2019-03-21T21:14:19.768Z,47.73
2019-03-21T21:16:51.482Z,47.95
2019-03-21T21:19:22.901Z,48.03
2019-03-21T21:21:54.189Z,48.91
2019-03-21T21:24:27.129Z,48.69
2019-03-21T21:26:58.435Z,48.79
2019-03-21T21:29:31.960Z,49.03
2019-03-21T21:32:03.278Z,49.00
2019-03-21T21:34:34.652Z,48.51
2019-03-21T21:37:05.957Z,48.65
2019-03-21T21:39:37.392Z,49.00
2019-03-21T21:42:08.798Z,48.45
2019-03-21T21:44:40.235Z,48.74
2019-03-21T21:47:11.606Z,49.39
2019-03-21T21:49:42.815Z,49.28
2019-03-21T21:52:15.523Z,49.09
2019-03-21T21:54:49.175Z,48.95
2019-03-21T21:57:19.925Z,49.57
2019-03-21T21:59:53.051Z,49.61
2019-03-21T22:02:24.207Z,49.38
2019-03-21T22:04:55.434Z,49.31
2019-03-21T22:07:26.783Z,49.56
2019-03-21T22:09:58.219Z,49.09
2019-03-21T22:12:29.480Z,49.07
2019-03-21T22:15:00.846Z,49.26
2019-03-21T22:17:32.352Z,49.11
2019-03-21T22:20:04.289Z,49.37
2019-03-21T22:22:39.940Z,49.70
2019-03-21T22:25:11.577Z,50.09
2019-03-21T22:27:43.073Z,49.60
2019-03-21T22:30:19.434Z,49.63
2019-03-21T22:32:50.726Z,49.38
2019-03-21T22:35:22.118Z,49.77
2019-03-21T22:37:54.543Z,49.93
2019-03-21T22:40:25.846Z,50.48
2019-03-21T22:42:57.125Z,50.03
2019-03-21T22:45:28.428Z,50.57
2019-03-21T22:47:59.734Z,50.33
2019-03-21T22:50:30.970Z,50.15
2019-03-21T22:53:02.317Z,49.87
2019-03-21T22:55:33.826Z,49.77
2019-03-21T22:58:05.417Z,49.67
2019-03-21T23:00:47.361Z,50.08
2019-03-21T23:03:19.470Z,49.95
2019-03-21T23:05:50.921Z,49.86
2019-03-21T23:08:23.531Z,50.48
2019-03-21T23:10:57.621Z,50.50
2019-03-21T23:13:29.199Z,50.18
2019-03-21T23:16:00.549Z,50.66
2019-03-21T23:18:32.087Z,50.98
2019-03-21T23:21:05.029Z,50.87
2019-03-21T23:23:36.395Z,51.56
2019-03-21T23:26:09.365Z,51.44
2019-03-21T23:28:40.933Z,51.54
2019-03-21T23:31:12.240Z,52.03
2019-03-21T23:33:43.588Z,52.12
2019-03-21T23:36:15.021Z,52.21
2019-03-21T23:38:46.379Z,52.05
2019-03-21T23:41:17.692Z,52.61
2019-03-21T23:43:49.043Z,52.76
2019-03-21T23:46:20.347Z,53.05
2019-03-21T23:48:51.614Z,52.92
2019-03-21T23:51:22.841Z,53.00
2019-03-21T23:53:54.208Z,53.15
2019-03-21T23:56:25.508Z,54.12
2019-03-21T23:58:56.936Z,54.05
